EDDCEDOP

Guest
Details From EDDC - Dresden
To EDOP - Schwerin Parchim
Flight Number -
Tags Generated
Created
Modified
Stats Distance 156 nm / 289 km
Max Altitude 0 ft / 0 m
Waypoints 2
Social Downloads 0
Likes 0
Share VATSIM

Download

Looking for another format? Having issues loading an existing format? Contact us
Advertisement - Login to hide

Notes

Generated

Route

EDDC EDOP

ID Type Via Altitude Latitude Longitude Leg Dist Tot Dist Heading (true) Name
O EDDC APT - 0 ft / 0 m 51.12425˚ 13.75544˚ - 0 nm - -
O EDOP APT - 0 ft / 0 m 53.42131˚ 11.76298˚ 156 nm 156 nm 333° / 331° -

Altitude Profile

Advertisement - Login to hide

EDDC

Details ICAO EDDC (DRS)
Name Dresden
Region Germany - Civil
Timezone Europe/Berlin (UTC+1.0)
Stats Elevation 752 ft / 229 m (AMSL)
Location 51.134366° 13.768065°
Runways 1
Magnetic Variation 3.800° E

METAR

EDDC 161320Z 26007KT 220V300 9999 SCT016 BKN023 BKN070 02/M00 Q1006 TEMPO BKN008

Decode

TAF

TAF EDDC 161100Z 1612/1712 26008KT 8000 BKN020 TEMPO 1612/1623 2500 -SNRA BKN012 PROB30 TEMPO 1612/1623 BKN008 BECMG 1623/1701 BKN012 TEMPO 1701/1712 2000 -SN BKN007

Decode

Departure Runways

ID Width Length Bearing (true) Bearing (mag) Surface Threshold Offset Overrun Length
04 197 ft / 60 m 9,348 ft / 2,849 m 40.74° 36.94° Concrete 0 ft / 0 m 0 ft / 0 m
22 197 ft / 60 m 9,348 ft / 2,849 m 220.76° 216.96° Concrete 984 ft / 300 m 0 ft / 0 m

EDOP

Details ICAO EDOP (SZW)
Name Schwerin Parchim
Region Germany - Civil
Timezone Europe/Berlin (UTC+1.0)
Stats Elevation 166 ft / 51 m (AMSL)
Location 53.427005° 11.783451°
Runways 1
Magnetic Variation 3.344° E

METAR

EDOP 161320Z 25008KT 9999 BKN011 03/01 Q1005

Decode

TAF

TAF EDOP 161100Z 1612/1712 26007KT 9999 BKN008 TEMPO 1612/1621 SCT015 TEMPO 1621/1708 3000 -SNRA BR BKN004 TEMPO 1708/1712 BKN012

Decode

Destination Runways

ID Width Length Bearing (true) Bearing (mag) Surface Threshold Offset Overrun Length
06 180 ft / 55 m 9,809 ft / 2,990 m 64.98° 61.64° Concrete 0 ft / 0 m 0 ft / 0 m
24 180 ft / 55 m 9,809 ft / 2,990 m 245.01° 241.67° Concrete 0 ft / 0 m 0 ft / 0 m

Approach Navaids

Runway Type Ident Frequency Range Bearing (true) Bearing (mag) Slope Elevation
24 Localiser IPAW 108.70 MHz 18 nm / 33 km 244.96° 241.61° - 147 ft / 45 m (AMSL)
24 Glidescope IPAW 108.70 MHz 10 nm / 19 km 244.98° 241.64° 3.00° 166 ft / 51 m (AMSL)